createdAt,value
2022-10-26T00:00:06.300Z,96139.16
2022-10-26T00:02:33.094Z,96150.53
2022-10-26T00:04:59.521Z,96153.56
2022-10-26T00:07:26.016Z,96148.69
2022-10-26T00:09:52.383Z,96157.81
2022-10-26T00:12:18.740Z,96150.91
2022-10-26T00:14:45.110Z,96156.00
2022-10-26T00:17:11.474Z,96163.94
2022-10-26T00:19:38.229Z,96155.00
2022-10-26T00:22:04.597Z,96161.91
2022-10-26T00:24:30.973Z,96155.00
2022-10-26T00:26:57.333Z,96156.63
2022-10-26T00:29:23.728Z,96148.06
2022-10-26T00:31:50.078Z,96161.91
2022-10-26T00:34:16.451Z,96154.59
2022-10-26T00:36:42.866Z,96163.97
2022-10-26T00:39:12.355Z,96155.81
2022-10-26T00:41:38.726Z,96172.31
2022-10-26T00:44:23.686Z,96166.03
2022-10-26T00:46:50.058Z,96166.03
2022-10-26T00:51:52.360Z,96153.16
2022-10-26T00:54:19.403Z,96152.94
2022-10-26T00:56:46.885Z,96146.22
2022-10-26T00:59:15.158Z,96156.34
2022-10-26T01:01:43.261Z,96151.44
2022-10-26T01:04:10.323Z,96156.72
2022-10-26T01:06:37.303Z,96156.13
2022-10-26T01:09:03.957Z,96158.56
2022-10-26T01:11:30.393Z,96163.88
2022-10-26T01:13:58.201Z,96165.50
2022-10-26T01:16:38.442Z,96169.94
2022-10-26T01:19:25.842Z,96167.31
2022-10-26T01:22:27.970Z,96161.66
2022-10-26T01:25:03.237Z,96164.28
2022-10-26T01:27:32.293Z,96162.00
2022-10-26T01:29:58.656Z,96161.41
2022-10-26T01:32:39.964Z,96163.44
2022-10-26T01:35:06.344Z,96163.44
2022-10-26T01:37:35.662Z,96164.44
2022-10-26T01:40:09.416Z,96161.00
2022-10-26T01:42:38.957Z,96166.66
2022-10-26T01:45:07.946Z,96162.19
2022-10-26T01:47:36.351Z,96153.63
2022-10-26T01:50:04.084Z,96155.69
2022-10-26T01:52:30.510Z,96153.19
2022-10-26T01:55:00.872Z,96153.59
2022-10-26T01:57:27.628Z,96155.03
2022-10-26T02:00:08.089Z,96158.03
2022-10-26T02:02:58.253Z,96160.88
2022-10-26T02:05:39.396Z,96158.63
2022-10-26T02:08:05.744Z,96162.66
2022-10-26T02:10:35.122Z,96163.88
2022-10-26T02:13:01.581Z,96157.97
2022-10-26T02:15:38.375Z,96154.88
2022-10-26T02:18:10.580Z,96157.94
2022-10-26T02:20:41.478Z,96159.31
2022-10-26T02:23:08.143Z,96158.69
2022-10-26T02:25:37.449Z,96156.88
2022-10-26T02:28:07.520Z,96154.22
2022-10-26T02:30:35.457Z,96158.69
2022-10-26T02:33:03.995Z,96166.38
2022-10-26T02:35:31.868Z,96171.06
2022-10-26T02:38:00.882Z,96167.78
2022-10-26T02:40:28.244Z,96168.00
2022-10-26T02:42:56.516Z,96172.03
2022-10-26T02:45:25.994Z,96174.22
2022-10-26T02:47:53.538Z,96166.28
2022-10-26T02:50:22.030Z,96175.06
2022-10-26T02:52:48.651Z,96178.53
2022-10-26T02:55:18.559Z,96173.22
2022-10-26T02:57:47.476Z,96171.59
2022-10-26T03:00:15.287Z,96168.31
2022-10-26T03:02:48.509Z,96171.16
2022-10-26T03:05:23.474Z,96183.28
2022-10-26T03:07:49.949Z,96175.56
2022-10-26T03:10:16.354Z,96185.69
2022-10-26T03:12:42.713Z,96177.88
2022-10-26T03:15:09.307Z,96175.06
2022-10-26T03:17:35.700Z,96174.69
2022-10-26T03:20:02.137Z,96191.38
2022-10-26T03:22:28.508Z,96188.91
2022-10-26T03:24:55.009Z,96197.84
2022-10-26T03:27:21.467Z,96195.38
2022-10-26T03:29:47.946Z,96205.94
2022-10-26T03:32:14.306Z,96194.19
2022-10-26T03:34:40.688Z,96189.34
2022-10-26T03:37:07.047Z,96193.41
2022-10-26T03:39:33.414Z,96194.63
2022-10-26T03:41:59.813Z,96193.63
2022-10-26T03:44:26.189Z,96202.38
2022-10-26T03:46:52.545Z,96191.56
2022-10-26T03:49:18.911Z,96200.66
2022-10-26T03:51:45.272Z,96198.75
2022-10-26T03:54:11.728Z,96198.97
2022-10-26T03:56:38.140Z,96208.31
2022-10-26T03:59:04.623Z,96204.28
2022-10-26T04:01:31.112Z,96205.94
2022-10-26T04:03:57.624Z,96205.94
2022-10-26T04:06:24.026Z,96209.56
2022-10-26T04:08:51.774Z,96204.28
2022-10-26T04:11:18.149Z,96207.75
2022-10-26T04:13:44.514Z,96211.66
2022-10-26T04:16:10.871Z,96208.88
2022-10-26T04:18:37.252Z,96202.56
2022-10-26T04:21:03.764Z,96200.75
2022-10-26T04:23:30.144Z,96207.22
2022-10-26T04:25:56.522Z,96208.59
2022-10-26T04:28:22.901Z,96220.59
2022-10-26T04:30:49.285Z,96219.44
2022-10-26T04:33:15.641Z,96219.44
2022-10-26T04:35:42.994Z,96217.78
2022-10-26T04:38:10.422Z,96215.78
2022-10-26T04:40:36.868Z,96216.50
2022-10-26T04:43:03.329Z,96221.78
2022-10-26T04:45:31.161Z,96208.41
2022-10-26T04:48:00.599Z,96217.16
2022-10-26T04:50:28.475Z,96213.31
2022-10-26T04:52:55.047Z,96213.03
2022-10-26T04:55:21.450Z,96217.50
2022-10-26T04:57:48.056Z,96216.16
2022-10-26T05:00:14.978Z,96215.97
2022-10-26T05:02:41.363Z,96218.59
2022-10-26T05:05:10.028Z,96225.69
2022-10-26T05:07:39.100Z,96227.50
2022-10-26T05:10:05.697Z,96234.44
2022-10-26T05:12:32.086Z,96227.97
2022-10-26T05:14:59.184Z,96225.31
2022-10-26T05:17:26.154Z,96233.03
2022-10-26T05:19:55.516Z,96232.44
2022-10-26T05:22:22.343Z,96238.72
2022-10-26T05:24:48.729Z,96239.75
2022-10-26T05:27:15.085Z,96242.19
2022-10-26T05:29:41.598Z,96246.44
2022-10-26T05:32:07.971Z,96242.81
2022-10-26T05:34:37.206Z,96240.19
2022-10-26T05:37:05.930Z,96246.94
2022-10-26T05:39:32.309Z,96252.78
2022-10-26T05:41:58.662Z,96254.63
2022-10-26T05:44:25.129Z,96254.03
2022-10-26T05:46:51.536Z,96252.50
2022-10-26T05:49:17.972Z,96249.88
2022-10-26T05:51:44.384Z,96245.56
2022-10-26T05:54:13.751Z,96250.84
2022-10-26T05:56:41.196Z,96255.16
2022-10-26T05:59:12.054Z,96255.16
2022-10-26T06:01:44.640Z,96258.78
2022-10-26T06:04:29.263Z,96268.16
2022-10-26T06:06:56.434Z,96264.88
2022-10-26T06:09:23.338Z,96266.84
2022-10-26T06:14:21.470Z,96279.47
2022-10-26T06:17:06.728Z,96280.88
2022-10-26T06:19:46.732Z,96284.00
2022-10-26T06:22:13.085Z,96283.53
2022-10-26T06:24:42.740Z,96277.25
2022-10-26T06:27:15.757Z,96284.66
2022-10-26T06:29:50.534Z,96285.81
2022-10-26T06:32:17.554Z,96290.63
2022-10-26T06:34:46.502Z,96295.22
2022-10-26T06:37:13.327Z,96291.97
2022-10-26T06:39:42.510Z,96294.69
2022-10-26T06:42:10.282Z,96297.91
2022-10-26T06:44:36.955Z,96297.91
2022-10-26T06:47:07.432Z,96295.47
2022-10-26T06:49:33.762Z,96297.38
2022-10-26T06:52:02.738Z,96287.41
2022-10-26T06:54:49.699Z,96298.88
2022-10-26T06:57:17.058Z,96302.72
2022-10-26T06:59:46.968Z,96298.88
2022-10-26T07:02:14.900Z,96299.97
2022-10-26T07:04:41.946Z,96299.66
2022-10-26T07:07:14.261Z,96298.75
2022-10-26T07:09:40.618Z,96303.63
2022-10-26T07:12:07.068Z,96304.91
2022-10-26T07:14:33.506Z,96303.72
2022-10-26T07:16:59.986Z,96311.31
2022-10-26T07:19:26.358Z,96309.22
2022-10-26T07:21:54.360Z,96307.94
2022-10-26T07:24:20.719Z,96309.38
2022-10-26T07:26:47.124Z,96317.03
2022-10-26T07:29:14.052Z,96313.53
2022-10-26T07:31:40.496Z,96313.16
2022-10-26T07:34:06.883Z,96311.63
2022-10-26T07:36:33.866Z,96319.06
2022-10-26T07:39:00.273Z,96316.72
2022-10-26T07:41:26.630Z,96320.56
2022-10-26T07:43:53.088Z,96318.38
2022-10-26T07:46:19.503Z,96322.44
2022-10-26T07:48:45.882Z,96321.25
2022-10-26T07:51:12.350Z,96327.97
2022-10-26T07:53:38.801Z,96321.25
2022-10-26T07:56:05.444Z,96320.06
2022-10-26T07:58:31.804Z,96320.59
2022-10-26T08:00:58.192Z,96314.19
2022-10-26T08:03:24.614Z,96319.28
2022-10-26T08:05:53.864Z,96320.00
2022-10-26T08:08:20.241Z,96317.22
2022-10-26T08:10:47.113Z,96313.69
2022-10-26T08:13:13.854Z,96315.38
2022-10-26T08:15:40.799Z,96309.38
2022-10-26T08:18:07.440Z,96302.53
2022-10-26T08:20:33.867Z,96311.13
2022-10-26T08:23:01.299Z,96308.75
2022-10-26T08:25:27.704Z,96310.81
2022-10-26T08:27:54.389Z,96317.34
2022-10-26T08:30:20.963Z,96310.84
2022-10-26T08:32:47.625Z,96311.28
2022-10-26T08:35:14.599Z,96316.00
2022-10-26T08:37:40.973Z,96316.63
2022-10-26T08:40:07.657Z,96311.16
2022-10-26T08:42:38.014Z,96319.53
2022-10-26T08:45:10.208Z,96322.81
2022-10-26T08:47:43.169Z,96318.16
2022-10-26T08:50:13.337Z,96323.03
2022-10-26T08:53:03.699Z,96324.09
2022-10-26T08:55:37.859Z,96312.31
2022-10-26T08:58:06.536Z,96313.56
2022-10-26T09:00:34.731Z,96316.03
2022-10-26T09:03:01.113Z,96316.66
2022-10-26T09:05:34.776Z,96314.44
2022-10-26T09:08:12.784Z,96310.38
2022-10-26T09:10:45.264Z,96309.00
2022-10-26T09:13:11.622Z,96311.25
2022-10-26T09:15:41.068Z,96310.88
2022-10-26T09:18:26.348Z,96315.78
2022-10-26T09:21:05.938Z,96319.06
2022-10-26T09:23:38.479Z,96306.06
2022-10-26T09:26:06.413Z,96303.44
2022-10-26T09:28:35.227Z,96307.94
2022-10-26T09:31:03.885Z,96298.41
2022-10-26T09:33:32.485Z,96300.88
2022-10-26T09:36:01.204Z,96299.09
2022-10-26T09:38:46.180Z,96304.63
2022-10-26T09:41:22.196Z,96301.78
2022-10-26T09:43:50.224Z,96295.09
2022-10-26T09:46:22.460Z,96297.75
2022-10-26T09:48:51.037Z,96306.34
2022-10-26T09:51:18.142Z,96294.59
2022-10-26T09:53:44.590Z,96296.06
2022-10-26T09:56:12.481Z,96294.44
2022-10-26T09:58:48.436Z,96291.41
2022-10-26T10:01:42.443Z,96281.66
2022-10-26T10:04:17.383Z,96279.63
2022-10-26T10:06:44.878Z,96279.63
2022-10-26T10:09:15.480Z,96281.47
2022-10-26T10:11:58.000Z,96276.34
2022-10-26T10:14:24.425Z,96267.34
2022-10-26T10:17:11.165Z,96276.31
2022-10-26T10:19:38.297Z,96273.19
2022-10-26T10:22:10.843Z,96254.97
2022-10-26T10:24:38.150Z,96265.59
2022-10-26T10:27:06.023Z,96268.19
2022-10-26T10:29:34.028Z,96264.88
2022-10-26T10:32:01.867Z,96262.94
2022-10-26T10:34:31.831Z,96266.72
2022-10-26T10:36:59.393Z,96260.91
2022-10-26T10:41:57.217Z,96261.28
2022-10-26T10:44:31.494Z,96260.59
2022-10-26T10:47:01.686Z,96268.03
2022-10-26T10:49:29.223Z,96264.59
2022-10-26T10:51:56.010Z,96256.22
2022-10-26T10:54:31.475Z,96263.09
2022-10-26T10:57:06.194Z,96258.16
2022-10-26T10:59:44.705Z,96261.53
2022-10-26T11:02:29.938Z,96256.91
2022-10-26T11:05:02.192Z,96257.63
2022-10-26T11:07:30.470Z,96262.78
2022-10-26T11:09:57.283Z,96260.22
2022-10-26T11:12:28.117Z,96260.84
2022-10-26T11:15:00.492Z,96257.13
2022-10-26T11:17:30.921Z,96259.13
2022-10-26T11:20:02.830Z,96260.84
2022-10-26T11:22:33.065Z,96263.16
2022-10-26T11:24:59.439Z,96256.78
2022-10-26T11:27:29.262Z,96257.53
2022-10-26T11:29:55.601Z,96259.25
2022-10-26T11:32:23.851Z,96252.97
2022-10-26T11:34:50.203Z,96244.94
2022-10-26T11:37:28.724Z,96253.31
2022-10-26T11:40:00.946Z,96243.75
2022-10-26T11:42:41.265Z,96242.34
2022-10-26T11:45:17.850Z,96236.50
2022-10-26T11:47:48.983Z,96237.81
2022-10-26T11:50:35.884Z,96237.69
2022-10-26T11:53:05.275Z,96235.31
2022-10-26T11:55:31.751Z,96235.97
2022-10-26T11:57:58.694Z,96232.91
2022-10-26T12:00:26.334Z,96240.09
2022-10-26T12:02:55.704Z,96231.19
2022-10-26T12:05:23.740Z,96236.75
2022-10-26T12:07:52.655Z,96243.03
2022-10-26T12:10:25.040Z,96239.53
2022-10-26T12:12:54.434Z,96242.84
2022-10-26T12:15:30.815Z,96239.25
2022-10-26T12:18:10.288Z,96247.69
2022-10-26T12:20:51.681Z,96243.19
2022-10-26T12:23:28.113Z,96234.78
2022-10-26T12:26:23.225Z,96236.47
2022-10-26T12:29:09.875Z,96229.00
2022-10-26T12:31:36.248Z,96242.81
2022-10-26T12:34:22.220Z,96233.63
2022-10-26T12:36:49.374Z,96240.06
2022-10-26T12:39:32.664Z,96238.41
2022-10-26T12:42:05.194Z,96236.81
2022-10-26T12:44:33.774Z,96238.09
2022-10-26T12:47:00.184Z,96236.41
2022-10-26T12:49:45.696Z,96242.47
2022-10-26T12:52:19.867Z,96242.38
2022-10-26T12:54:55.883Z,96236.94
2022-10-26T12:57:37.709Z,96239.44
2022-10-26T13:00:05.950Z,96247.13
2022-10-26T13:02:35.397Z,96251.09
2022-10-26T13:05:24.946Z,96255.19
2022-10-26T13:07:51.554Z,96246.19
2022-10-26T13:10:22.935Z,96249.06
2022-10-26T13:12:53.845Z,96254.44
2022-10-26T13:15:20.333Z,96256.47
2022-10-26T13:17:55.414Z,96254.47
2022-10-26T13:20:21.798Z,96260.03
2022-10-26T13:22:48.967Z,96264.22
2022-10-26T13:25:26.341Z,96265.94
2022-10-26T13:28:16.282Z,96269.44
2022-10-26T13:30:44.559Z,96278.56
2022-10-26T13:33:20.615Z,96283.00
2022-10-26T13:35:47.253Z,96286.75
2022-10-26T13:38:18.965Z,96295.06
2022-10-26T13:40:45.742Z,96294.41
2022-10-26T13:43:16.024Z,96303.72
2022-10-26T13:46:01.267Z,96307.91
2022-10-26T13:48:30.627Z,96305.72
2022-10-26T13:50:59.456Z,96314.69
2022-10-26T13:53:31.670Z,96320.47
2022-10-26T13:56:06.519Z,96321.56
2022-10-26T13:58:48.678Z,96322.03
2022-10-26T14:01:21.560Z,96323.66
2022-10-26T14:03:51.019Z,96320.22
2022-10-26T14:06:17.423Z,96316.63
2022-10-26T14:08:46.337Z,96323.09
2022-10-26T14:11:18.154Z,96332.69
2022-10-26T14:13:45.928Z,96333.47
2022-10-26T14:16:17.421Z,96331.09
2022-10-26T14:18:45.024Z,96336.91
2022-10-26T14:21:16.224Z,96343.09
2022-10-26T14:23:51.793Z,96331.47
2022-10-26T14:26:28.584Z,96340.97
2022-10-26T14:28:56.956Z,96341.41
2022-10-26T14:31:28.281Z,96340.03
2022-10-26T14:33:55.382Z,96341.25
2022-10-26T14:36:25.310Z,96344.56
2022-10-26T14:38:54.344Z,96346.25
2022-10-26T14:41:21.863Z,96350.00
2022-10-26T14:43:48.426Z,96357.56
2022-10-26T14:46:16.367Z,96354.94
2022-10-26T14:48:51.296Z,96358.19
2022-10-26T14:51:18.828Z,96361.28
2022-10-26T14:53:52.476Z,96370.84
2022-10-26T14:56:24.832Z,96368.34
2022-10-26T14:58:51.861Z,96374.91
2022-10-26T15:01:32.065Z,96369.19
2022-10-26T15:04:07.530Z,96378.38
2022-10-26T15:06:41.807Z,96383.91
2022-10-26T15:09:28.236Z,96380.81
2022-10-26T15:11:54.660Z,96375.16
2022-10-26T15:14:21.058Z,96384.75
2022-10-26T15:16:55.322Z,96386.78
2022-10-26T15:19:23.927Z,96389.28
2022-10-26T15:21:51.419Z,96383.53
2022-10-26T15:24:25.418Z,96386.41
2022-10-26T15:26:52.286Z,96391.94
2022-10-26T15:29:35.007Z,96392.75
2022-10-26T15:32:01.850Z,96387.88
2022-10-26T15:34:28.354Z,96382.56
2022-10-26T15:36:54.889Z,96392.59
2022-10-26T15:39:22.472Z,96392.19
2022-10-26T15:41:49.445Z,96390.53
2022-10-26T15:44:20.632Z,96394.63
2022-10-26T15:46:47.186Z,96395.66
2022-10-26T15:49:18.118Z,96401.63
2022-10-26T15:51:45.585Z,96390.22
2022-10-26T15:54:13.130Z,96401.25
2022-10-26T15:56:39.825Z,96402.06
2022-10-26T15:59:13.735Z,96398.41
2022-10-26T16:01:40.151Z,96409.63
2022-10-26T16:04:06.614Z,96410.88
2022-10-26T16:06:34.999Z,96414.38
2022-10-26T16:09:03.071Z,96419.69
2022-10-26T16:11:29.931Z,96420.66
2022-10-26T16:13:58.373Z,96421.09
2022-10-26T16:16:28.128Z,96431.50
2022-10-26T16:19:11.947Z,96425.56
2022-10-26T16:21:42.101Z,96432.75
2022-10-26T16:24:09.704Z,96434.16
2022-10-26T16:26:36.116Z,96423.34
2022-10-26T16:29:02.517Z,96424.53
2022-10-26T16:31:28.896Z,96425.78
2022-10-26T16:33:57.148Z,96431.69
2022-10-26T16:36:25.358Z,96430.47
2022-10-26T16:38:51.779Z,96434.38
2022-10-26T16:41:18.287Z,96437.22
2022-10-26T16:43:45.057Z,96439.28
2022-10-26T16:46:18.802Z,96432.72
2022-10-26T16:48:46.423Z,96439.47
2022-10-26T16:51:14.425Z,96442.72
2022-10-26T16:53:40.929Z,96447.84
2022-10-26T16:56:11.619Z,96446.84
2022-10-26T16:58:38.682Z,96456.03
2022-10-26T17:01:05.500Z,96458.50
2022-10-26T17:03:32.084Z,96454.81
2022-10-26T17:05:59.456Z,96468.28
2022-10-26T17:08:26.809Z,96467.03
2022-10-26T17:10:53.550Z,96459.91
2022-10-26T17:13:19.990Z,96473.38
2022-10-26T17:15:46.373Z,96467.44
2022-10-26T17:18:12.805Z,96471.34
2022-10-26T17:20:39.257Z,96467.84
2022-10-26T17:23:06.227Z,96473.16
2022-10-26T17:25:36.613Z,96473.16
2022-10-26T17:28:03.347Z,96476.66
2022-10-26T17:30:32.866Z,96473.19
2022-10-26T17:33:01.259Z,96467.88
2022-10-26T17:35:27.691Z,96472.75
2022-10-26T17:37:54.380Z,96480.53
2022-10-26T17:40:21.300Z,96483.78
2022-10-26T17:42:47.685Z,96480.31
2022-10-26T17:45:14.114Z,96482.19
2022-10-26T17:47:40.530Z,96488.75
2022-10-26T17:50:07.271Z,96485.47
2022-10-26T17:52:33.638Z,96496.09
2022-10-26T17:55:01.918Z,96486.88
2022-10-26T17:57:29.290Z,96493.22
2022-10-26T17:59:55.636Z,96498.13
2022-10-26T18:02:22.096Z,96505.91
2022-10-26T18:04:48.580Z,96497.53
2022-10-26T18:07:15.023Z,96504.44
2022-10-26T18:09:41.969Z,96508.75
2022-10-26T18:12:08.446Z,96507.94
2022-10-26T18:14:34.828Z,96515.69
2022-10-26T18:17:01.203Z,96516.31
2022-10-26T18:19:27.576Z,96513.66
2022-10-26T18:21:54.166Z,96515.50
2022-10-26T18:24:20.895Z,96518.16
2022-10-26T18:26:47.272Z,96521.84
2022-10-26T18:29:13.863Z,96533.28
2022-10-26T18:31:40.284Z,96530.41
2022-10-26T18:34:07.034Z,96538.78
2022-10-26T18:36:33.660Z,96541.47
2022-10-26T18:39:00.113Z,96538.19
2022-10-26T18:41:26.822Z,96536.97
2022-10-26T18:43:54.279Z,96536.97
2022-10-26T18:46:25.180Z,96530.63
2022-10-26T18:48:52.345Z,96535.53
2022-10-26T18:51:19.943Z,96525.50
2022-10-26T18:53:46.903Z,96544.72
2022-10-26T18:56:15.249Z,96550.03
2022-10-26T18:58:42.633Z,96550.88
2022-10-26T19:01:16.646Z,96556.41
2022-10-26T19:03:43.498Z,96549.63
2022-10-26T19:06:20.323Z,96553.28
2022-10-26T19:08:46.889Z,96552.91
2022-10-26T19:11:14.383Z,96552.50
2022-10-26T19:13:41.213Z,96553.31
2022-10-26T19:16:21.795Z,96555.78
2022-10-26T19:18:58.985Z,96551.25
2022-10-26T19:21:25.676Z,96562.72
2022-10-26T19:23:54.075Z,96560.25
2022-10-26T19:26:25.074Z,96561.88
2022-10-26T19:28:55.661Z,96563.75
2022-10-26T19:31:24.895Z,96570.69
2022-10-26T19:33:53.645Z,96571.72
2022-10-26T19:36:20.026Z,96574.38
2022-10-26T19:38:46.415Z,96573.53
2022-10-26T19:41:13.810Z,96580.69
2022-10-26T19:43:40.834Z,96577.41
2022-10-26T19:46:08.934Z,96583.75
2022-10-26T19:48:35.763Z,96585.38
2022-10-26T19:51:02.577Z,96590.69
2022-10-26T19:53:28.986Z,96595.63
2022-10-26T19:55:59.522Z,96595.84
2022-10-26T19:58:26.744Z,96595.00
2022-10-26T20:00:57.084Z,96597.66
2022-10-26T20:03:23.663Z,96605.66
2022-10-26T20:05:50.075Z,96606.47
2022-10-26T20:08:16.684Z,96605.66
2022-10-26T20:10:44.078Z,96607.25
2022-10-26T20:13:11.281Z,96604.59
2022-10-26T20:15:38.133Z,96611.78
2022-10-26T20:18:04.600Z,96613.41
2022-10-26T20:20:31.582Z,96619.53
2022-10-26T20:22:58.313Z,96610.53
2022-10-26T20:25:24.705Z,96608.91
2022-10-26T20:27:51.320Z,96611.78
2022-10-26T20:30:18.187Z,96608.31
2022-10-26T20:32:44.533Z,96610.97
2022-10-26T20:35:10.918Z,96610.97
2022-10-26T20:37:37.452Z,96616.28
2022-10-26T20:40:04.222Z,96613.00
2022-10-26T20:42:30.689Z,96609.31
2022-10-26T20:45:07.392Z,96597.88
2022-10-26T20:47:33.949Z,96612.78
2022-10-26T20:50:00.471Z,96616.28
2022-10-26T20:52:36.639Z,96611.97
2022-10-26T20:55:17.954Z,96612.16
2022-10-26T20:57:52.417Z,96608.50
2022-10-26T21:00:19.075Z,96610.34
2022-10-26T21:02:45.462Z,96614.63
2022-10-26T21:05:11.833Z,96613.00
2022-10-26T21:07:38.189Z,96610.34
2022-10-26T21:10:04.735Z,96611.16
2022-10-26T21:12:31.239Z,96610.34
2022-10-26T21:14:57.621Z,96610.75
2022-10-26T21:17:23.996Z,96607.47
2022-10-26T21:19:50.354Z,96614.22
2022-10-26T21:22:16.799Z,96611.38
2022-10-26T21:24:43.292Z,96612.16
2022-10-26T21:27:09.736Z,96612.16
2022-10-26T21:29:36.086Z,96614.03
2022-10-26T21:32:02.532Z,96617.28
2022-10-26T21:34:28.962Z,96626.28
2022-10-26T21:36:55.323Z,96629.75
2022-10-26T21:39:21.672Z,96620.75
2022-10-26T21:41:48.080Z,96626.06
2022-10-26T21:44:41.772Z,96622.78
2022-10-26T21:47:00.808Z,96624.44
2022-10-26T21:49:27.185Z,96623.63
2022-10-26T21:51:53.578Z,96627.91
2022-10-26T21:54:19.949Z,96633.41
2022-10-26T21:56:46.361Z,96628.72
2022-10-26T21:59:12.715Z,96636.69
2022-10-26T22:01:39.416Z,96634.03
2022-10-26T22:04:05.837Z,96635.06
2022-10-26T22:06:32.208Z,96623.63
2022-10-26T22:08:58.566Z,96624.44
2022-10-26T22:11:25.441Z,96631.38
2022-10-26T22:13:52.390Z,96629.34
2022-10-26T22:16:23.256Z,96635.06
2022-10-26T22:18:50.799Z,96637.94
2022-10-26T22:21:18.128Z,96636.69
2022-10-26T22:23:44.907Z,96633.00
2022-10-26T22:26:12.791Z,96630.53
2022-10-26T22:28:42.678Z,96635.03
2022-10-26T22:31:11.134Z,96637.50
2022-10-26T22:33:37.506Z,96633.41
2022-10-26T22:36:08.334Z,96640.16
2022-10-26T22:38:34.726Z,96638.94
2022-10-26T22:41:01.143Z,96642.41
2022-10-26T22:43:27.877Z,96637.72
2022-10-26T22:46:06.387Z,96637.72
2022-10-26T22:48:33.479Z,96635.88
2022-10-26T22:51:04.087Z,96633.81
2022-10-26T22:53:30.473Z,96644.66
2022-10-26T22:55:56.873Z,96642.81
2022-10-26T22:58:23.243Z,96643.81
2022-10-26T23:00:49.788Z,96643.97
2022-10-26T23:03:16.158Z,96648.44
2022-10-26T23:05:46.645Z,96642.72
2022-10-26T23:08:13.054Z,96652.06
2022-10-26T23:10:39.425Z,96646.78
2022-10-26T23:13:05.899Z,96650.25
2022-10-26T23:15:32.288Z,96645.16
2022-10-26T23:17:58.673Z,96648.44
2022-10-26T23:20:25.119Z,96654.94
2022-10-26T23:22:51.648Z,96653.31
2022-10-26T23:25:18.335Z,96654.19
2022-10-26T23:27:44.696Z,96657.47
2022-10-26T23:30:11.395Z,96657.84
2022-10-26T23:32:37.765Z,96652.72
2022-10-26T23:35:04.288Z,96662.38
2022-10-26T23:37:30.666Z,96663.34
2022-10-26T23:39:57.070Z,96666.00
2022-10-26T23:42:23.442Z,96659.47
2022-10-26T23:44:49.821Z,96671.09
2022-10-26T23:47:16.202Z,96668.44
2022-10-26T23:49:42.642Z,96671.72
2022-10-26T23:52:09.000Z,96673.34
2022-10-26T23:54:35.354Z,96671.72
2022-10-26T23:57:01.802Z,96669.06
2022-10-26T23:59:28.160Z,96670.50
